createdAt,value
2023-03-11T00:02:22.814Z,8.88
2023-03-11T00:04:49.457Z,7.85
2023-03-11T00:07:16.054Z,9.38
2023-03-11T00:09:42.774Z,11.07
2023-03-11T00:12:09.672Z,9.32
2023-03-11T00:14:36.257Z,10.13
2023-03-11T00:17:02.826Z,9.02
2023-03-11T00:19:29.378Z,8.63
2023-03-11T00:21:55.898Z,9.67
2023-03-11T00:24:22.518Z,11.07
2023-03-11T00:26:49.380Z,10.05
2023-03-11T00:29:15.876Z,9.68
2023-03-11T00:31:42.542Z,11.27
2023-03-11T00:34:09.193Z,10.10
2023-03-11T00:36:36.008Z,8.63
2023-03-11T00:39:04.465Z,7.20
2023-03-11T00:41:31.103Z,8.57
2023-03-11T00:43:57.587Z,9.93
2023-03-11T00:46:24.498Z,9.50
2023-03-11T00:48:52.080Z,10.57
2023-03-11T00:51:20.031Z,7.75
2023-03-11T00:53:46.917Z,10.13
2023-03-11T00:56:15.846Z,8.45
2023-03-11T00:58:44.593Z,8.03
2023-03-11T01:01:18.249Z,8.13
2023-03-11T01:03:45.514Z,13.77
2023-03-11T01:06:12.648Z,9.40
2023-03-11T01:08:39.425Z,10.80
2023-03-11T01:11:07.602Z,7.63
2023-03-11T01:13:35.560Z,8.27
2023-03-11T01:16:02.424Z,9.60
2023-03-11T01:18:29.092Z,9.27
2023-03-11T01:20:55.743Z,10.13
2023-03-11T01:23:22.579Z,10.77
2023-03-11T01:25:49.216Z,9.40
2023-03-11T01:28:15.927Z,8.27
2023-03-11T01:30:43.707Z,12.75
2023-03-11T01:33:15.217Z,10.32
2023-03-11T01:35:42.186Z,10.50
2023-03-11T01:38:09.253Z,9.30
2023-03-11T01:40:38.796Z,11.30
2023-03-11T01:43:26.839Z,9.40
2023-03-11T01:45:53.293Z,8.82
2023-03-11T01:48:20.078Z,8.97
2023-03-11T01:50:50.643Z,9.05
2023-03-11T01:53:18.819Z,14.43
2023-03-11T01:55:47.436Z,8.55
2023-03-11T01:58:25.290Z,11.77
2023-03-11T02:00:53.740Z,9.33
2023-03-11T02:03:29.854Z,8.68
2023-03-11T02:05:59.665Z,15.52
2023-03-11T02:08:26.404Z,8.38
2023-03-11T02:10:54.350Z,8.98
2023-03-11T02:13:20.933Z,11.47
2023-03-11T02:15:48.200Z,10.52
2023-03-11T02:18:15.503Z,10.68
2023-03-11T02:21:00.124Z,9.48
2023-03-11T02:23:34.186Z,8.38
2023-03-11T02:26:09.480Z,11.50
2023-03-11T02:28:38.802Z,11.57
2023-03-11T02:31:05.239Z,9.95
2023-03-11T02:33:34.331Z,9.80
2023-03-11T02:36:00.890Z,9.75
2023-03-11T02:38:27.601Z,13.27
2023-03-11T02:40:58.046Z,10.55
2023-03-11T02:43:33.233Z,9.60
2023-03-11T02:46:00.510Z,11.80
2023-03-11T02:48:29.221Z,10.32
2023-03-11T02:50:56.684Z,8.00
2023-03-11T02:53:23.210Z,11.48
2023-03-11T02:55:49.681Z,10.05
2023-03-11T02:58:16.203Z,11.15
2023-03-11T03:00:42.888Z,11.30
2023-03-11T03:03:09.305Z,8.87
2023-03-11T03:05:35.801Z,10.13
2023-03-11T03:08:02.373Z,12.32
2023-03-11T03:10:29.052Z,11.80
2023-03-11T03:12:55.556Z,9.82
2023-03-11T03:15:22.048Z,12.10
2023-03-11T03:17:48.574Z,11.60
2023-03-11T03:20:15.178Z,11.50
2023-03-11T03:22:42.435Z,11.50
2023-03-11T03:25:09.379Z,11.55
2023-03-11T03:27:36.307Z,10.87
2023-03-11T03:30:03.905Z,12.25
2023-03-11T03:32:30.439Z,10.10
2023-03-11T03:34:57.252Z,11.27
2023-03-11T03:37:23.893Z,16.38
2023-03-11T03:39:50.434Z,10.20
2023-03-11T03:42:17.175Z,11.30
2023-03-11T03:44:43.963Z,12.93
2023-03-11T03:47:10.600Z,10.55
2023-03-11T03:49:37.083Z,10.25
2023-03-11T03:52:06.016Z,11.53
2023-03-11T03:54:32.503Z,15.98
2023-03-11T03:56:58.986Z,13.55
2023-03-11T03:59:25.486Z,13.90
2023-03-11T04:01:52.081Z,11.73
2023-03-11T04:04:18.708Z,12.77
2023-03-11T04:06:45.213Z,11.82
2023-03-11T04:09:12.614Z,12.35
2023-03-11T04:11:39.120Z,12.30
2023-03-11T04:14:06.492Z,16.67
2023-03-11T04:16:33.087Z,11.53
2023-03-11T04:18:59.761Z,11.02
2023-03-11T04:21:26.248Z,10.57
2023-03-11T04:23:52.787Z,13.13
2023-03-11T04:26:19.208Z,10.15
2023-03-11T04:28:45.672Z,13.67
2023-03-11T04:31:12.442Z,13.45
2023-03-11T04:33:39.008Z,14.02
2023-03-11T04:36:07.659Z,15.25
2023-03-11T04:38:34.593Z,12.02
2023-03-11T04:41:02.278Z,11.37
2023-03-11T04:43:29.172Z,11.00
2023-03-11T04:45:55.836Z,11.07
2023-03-11T04:48:22.313Z,15.73
2023-03-11T04:50:49.794Z,11.02
2023-03-11T04:53:16.300Z,12.93
2023-03-11T04:55:42.809Z,12.60
2023-03-11T04:58:09.298Z,11.43
2023-03-11T05:00:35.983Z,17.10
2023-03-11T05:03:02.435Z,15.05
2023-03-11T05:05:28.847Z,12.40
2023-03-11T05:07:55.306Z,13.85
2023-03-11T05:10:21.850Z,13.57
2023-03-11T05:12:49.488Z,14.57
2023-03-11T05:15:16.232Z,14.25
2023-03-11T05:17:42.784Z,13.43
2023-03-11T05:20:11.562Z,18.67
2023-03-11T05:22:38.518Z,12.70
2023-03-11T05:25:06.625Z,13.18
2023-03-11T05:27:33.307Z,13.45
2023-03-11T05:29:59.805Z,11.53
2023-03-11T05:32:26.533Z,12.50
2023-03-11T05:34:56.472Z,15.68
2023-03-11T05:37:23.029Z,16.98
2023-03-11T05:39:49.923Z,16.25
2023-03-11T05:42:16.581Z,14.43
2023-03-11T05:44:43.070Z,13.30
2023-03-11T05:47:09.744Z,15.82
2023-03-11T05:49:36.247Z,15.00
2023-03-11T05:52:03.183Z,13.10
2023-03-11T05:54:30.111Z,13.17
2023-03-11T05:56:56.529Z,14.32
2023-03-11T05:59:23.044Z,15.10
2023-03-11T06:01:49.716Z,13.43
2023-03-11T06:04:16.365Z,14.18
2023-03-11T06:06:42.805Z,15.27
2023-03-11T06:09:16.008Z,19.00
2023-03-11T06:11:43.998Z,19.50
2023-03-11T06:14:12.605Z,16.48
2023-03-11T06:16:40.056Z,15.93
2023-03-11T06:19:06.692Z,15.37
2023-03-11T06:21:33.217Z,18.30
2023-03-11T06:24:00.115Z,15.85
2023-03-11T06:26:26.668Z,19.05
2023-03-11T06:28:53.069Z,17.50
2023-03-11T06:31:25.782Z,15.87
2023-03-11T06:33:52.704Z,15.48
2023-03-11T06:36:20.411Z,16.17
2023-03-11T06:38:47.610Z,15.32
2023-03-11T06:41:14.122Z,17.23
2023-03-11T06:43:40.564Z,16.53
2023-03-11T06:46:13.130Z,18.10
2023-03-11T06:48:39.690Z,18.90
2023-03-11T06:51:06.634Z,17.92
2023-03-11T06:53:33.625Z,17.70
2023-03-11T06:56:00.035Z,19.57
2023-03-11T06:58:27.083Z,16.42
2023-03-11T07:00:53.761Z,17.73
2023-03-11T07:03:20.426Z,16.80
2023-03-11T07:05:51.633Z,15.40
2023-03-11T07:08:18.609Z,16.77
2023-03-11T07:10:45.855Z,17.35
2023-03-11T07:13:12.619Z,15.25
2023-03-11T07:15:39.092Z,20.17
2023-03-11T07:18:05.704Z,19.88
2023-03-11T07:20:32.167Z,16.43
2023-03-11T07:22:58.653Z,15.85
2023-03-11T07:25:25.148Z,16.55
2023-03-11T07:27:52.263Z,19.95
2023-03-11T07:30:19.363Z,18.08
2023-03-11T07:32:46.171Z,18.30
2023-03-11T07:35:12.676Z,21.35
2023-03-11T07:37:39.259Z,19.13
2023-03-11T07:40:06.311Z,22.42
2023-03-11T07:42:33.724Z,18.23
2023-03-11T07:45:00.160Z,16.50
2023-03-11T07:47:26.655Z,17.20
2023-03-11T07:49:53.140Z,13.18
2023-03-11T07:52:19.656Z,12.50
2023-03-11T07:54:46.099Z,16.00
2023-03-11T07:57:12.620Z,13.77
2023-03-11T07:59:39.167Z,12.82
2023-03-11T08:02:05.699Z,15.35
2023-03-11T08:04:32.175Z,15.75
2023-03-11T08:06:58.647Z,16.48
2023-03-11T08:09:26.302Z,19.60
2023-03-11T08:11:52.735Z,15.70
2023-03-11T08:14:19.760Z,12.43
2023-03-11T08:16:46.300Z,16.20
2023-03-11T08:19:13.903Z,13.98
2023-03-11T08:21:40.648Z,12.70
2023-03-11T08:24:07.381Z,15.23
2023-03-11T08:26:33.990Z,13.70
2023-03-11T08:29:00.467Z,12.20
2023-03-11T08:31:30.298Z,10.77
2023-03-11T08:34:03.144Z,13.10
2023-03-11T08:36:30.907Z,15.25
2023-03-11T08:38:57.911Z,11.57
2023-03-11T08:41:25.149Z,17.05
2023-03-11T08:43:51.842Z,12.32
2023-03-11T08:46:26.610Z,12.30
2023-03-11T08:48:54.323Z,11.43
2023-03-11T08:51:21.579Z,10.75
2023-03-11T08:53:48.533Z,9.57
2023-03-11T08:56:14.978Z,32.85
2023-03-11T08:58:41.502Z,28.77
2023-03-11T09:01:08.354Z,8.98
2023-03-11T09:03:35.986Z,9.05
2023-03-11T09:06:05.721Z,10.15
2023-03-11T09:08:32.370Z,6.65
2023-03-11T09:10:58.998Z,8.17
2023-03-11T09:13:25.597Z,8.82
2023-03-11T09:15:53.330Z,5.97
2023-03-11T09:18:21.017Z,7.13
2023-03-11T09:20:47.566Z,5.38
2023-03-11T09:23:16.928Z,6.33
2023-03-11T09:25:43.745Z,8.18
2023-03-11T09:28:10.211Z,8.27
2023-03-11T09:30:36.647Z,6.65
2023-03-11T09:33:03.130Z,7.00
2023-03-11T09:35:29.689Z,6.07
2023-03-11T09:37:56.274Z,5.40
2023-03-11T09:40:25.598Z,6.13
2023-03-11T09:43:04.656Z,5.28
2023-03-11T09:45:35.876Z,6.95
2023-03-11T09:48:31.831Z,8.00
2023-03-11T09:51:03.476Z,6.85
2023-03-11T09:53:48.496Z,8.05
2023-03-11T09:56:18.869Z,9.77
2023-03-11T09:58:55.352Z,8.30
2023-03-11T10:01:26.667Z,5.50
2023-03-11T10:03:57.474Z,6.25
2023-03-11T10:06:26.598Z,5.47
2023-03-11T10:08:56.984Z,9.20
2023-03-11T10:11:42.602Z,5.28
2023-03-11T10:14:46.900Z,7.23
2023-03-11T10:17:34.655Z,7.60
2023-03-11T10:20:17.260Z,8.00
2023-03-11T10:22:56.209Z,7.82
2023-03-11T10:25:42.731Z,9.43
2023-03-11T10:28:35.359Z,6.50
2023-03-11T10:31:27.653Z,6.97
2023-03-11T10:34:06.355Z,7.97
2023-03-11T10:36:53.745Z,9.15
2023-03-11T10:39:22.623Z,8.70
2023-03-11T10:42:00.204Z,7.07
2023-03-11T10:44:34.945Z,8.30
2023-03-11T10:47:01.680Z,7.90
2023-03-11T10:49:28.952Z,6.53
2023-03-11T10:51:56.242Z,6.97
2023-03-11T10:54:35.948Z,15.67
2023-03-11T10:57:05.486Z,12.32
2023-03-11T10:59:34.826Z,6.97
2023-03-11T11:02:23.508Z,6.80
2023-03-11T11:05:22.204Z,5.75
2023-03-11T11:08:03.558Z,6.30
2023-03-11T11:10:31.998Z,6.22
2023-03-11T11:13:08.741Z,10.32
2023-03-11T11:15:41.277Z,6.63
2023-03-11T11:18:19.746Z,7.63
2023-03-11T11:20:59.934Z,8.67
2023-03-11T11:23:35.397Z,7.00
2023-03-11T11:26:05.962Z,6.88
2023-03-11T11:28:34.041Z,7.50
2023-03-11T11:31:06.590Z,7.72
2023-03-11T11:33:38.541Z,6.70
2023-03-11T11:36:12.141Z,8.68
2023-03-11T11:38:39.649Z,8.40
2023-03-11T11:41:09.175Z,7.10
2023-03-11T11:44:01.447Z,8.38
2023-03-11T11:46:37.009Z,5.23
2023-03-11T11:49:21.562Z,6.70
2023-03-11T11:51:56.205Z,7.28
2023-03-11T11:54:43.802Z,7.03
2023-03-11T11:57:16.315Z,7.70
2023-03-11T11:59:44.138Z,6.07
2023-03-11T12:02:35.767Z,8.15
2023-03-11T12:05:11.247Z,8.85
2023-03-11T12:08:03.020Z,6.55
2023-03-11T12:10:40.143Z,8.65
2023-03-11T12:13:12.926Z,7.40
2023-03-11T12:15:47.866Z,6.93
2023-03-11T12:18:57.589Z,5.97
2023-03-11T12:22:03.315Z,6.47
2023-03-11T12:24:39.062Z,5.47
2023-03-11T12:27:21.337Z,6.30
2023-03-11T12:29:55.588Z,4.95
2023-03-11T12:32:37.149Z,6.75
2023-03-11T12:35:45.581Z,5.10
2023-03-11T12:38:18.524Z,5.50
2023-03-11T12:40:44.978Z,6.53
2023-03-11T12:43:47.362Z,6.10
2023-03-11T12:46:16.153Z,6.20
2023-03-11T12:48:47.019Z,5.50
2023-03-11T12:51:32.007Z,6.28
2023-03-11T12:53:58.553Z,5.60
2023-03-11T12:56:40.346Z,6.40
2023-03-11T12:59:33.257Z,7.43
2023-03-11T13:02:27.326Z,5.25
2023-03-11T13:05:05.689Z,5.93
2023-03-11T13:07:37.568Z,6.30
2023-03-11T13:10:17.830Z,7.35
2023-03-11T13:12:52.254Z,8.20
2023-03-11T13:15:18.702Z,6.30
2023-03-11T13:18:12.235Z,6.25
2023-03-11T13:20:41.960Z,12.60
2023-03-11T13:23:14.326Z,8.52
2023-03-11T13:26:03.757Z,10.25
2023-03-11T13:29:04.097Z,8.13
2023-03-11T13:31:52.452Z,67.40
2023-03-11T13:34:54.649Z,14.60
2023-03-11T13:37:49.052Z,6.82
2023-03-11T13:40:36.540Z,5.43
2023-03-11T13:43:05.327Z,28.40
2023-03-11T13:45:34.513Z,6.60
2023-03-11T13:48:13.847Z,6.83
2023-03-11T13:50:48.058Z,6.65
2023-03-11T13:53:35.780Z,6.65
2023-03-11T13:56:02.387Z,6.72
2023-03-11T13:58:29.015Z,6.88
2023-03-11T14:01:01.065Z,7.83
2023-03-11T14:03:39.053Z,6.90
2023-03-11T14:06:08.973Z,9.23
2023-03-11T14:08:38.384Z,7.45
2023-03-11T14:11:17.372Z,5.13
2023-03-11T14:13:46.873Z,5.90
2023-03-11T14:16:21.603Z,9.38
2023-03-11T14:19:01.296Z,5.70
2023-03-11T14:21:28.334Z,5.13
2023-03-11T14:23:55.912Z,6.47
2023-03-11T14:26:26.656Z,7.87
2023-03-11T14:28:55.884Z,6.72
2023-03-11T14:31:22.296Z,9.05
2023-03-11T14:34:00.473Z,9.13
2023-03-11T14:36:27.195Z,7.32
2023-03-11T14:38:53.690Z,8.10
2023-03-11T14:41:20.338Z,7.55
2023-03-11T14:43:52.626Z,7.55
2023-03-11T14:46:26.203Z,6.00
2023-03-11T14:48:54.629Z,6.95
2023-03-11T14:51:27.861Z,9.20
2023-03-11T14:54:23.244Z,6.55
2023-03-11T14:57:07.937Z,7.90
2023-03-11T14:59:36.472Z,10.43
2023-03-11T15:02:33.171Z,7.15
2023-03-11T15:05:07.309Z,5.87
2023-03-11T15:07:36.821Z,7.90
2023-03-11T15:10:09.257Z,8.10
2023-03-11T15:12:42.260Z,6.80
2023-03-11T15:15:29.167Z,6.63
2023-03-11T15:17:58.549Z,8.47
2023-03-11T15:20:36.664Z,10.00
2023-03-11T15:23:05.594Z,7.05
2023-03-11T15:25:35.008Z,9.18
2023-03-11T15:28:25.194Z,8.68
2023-03-11T15:31:26.121Z,6.73
2023-03-11T15:33:52.627Z,9.02
2023-03-11T15:36:34.552Z,6.43
2023-03-11T15:39:13.741Z,6.85
2023-03-11T15:41:41.902Z,7.25
2023-03-11T15:44:32.706Z,9.70
2023-03-11T15:46:59.673Z,9.25
2023-03-11T15:49:27.180Z,7.93
2023-03-11T15:51:57.717Z,7.70
2023-03-11T15:54:24.242Z,8.70
2023-03-11T15:56:50.832Z,8.73
2023-03-11T15:59:17.986Z,9.27
2023-03-11T16:01:44.882Z,6.00
2023-03-11T16:04:17.404Z,10.82
2023-03-11T16:06:44.724Z,14.38
2023-03-11T16:09:12.381Z,11.23
2023-03-11T16:11:40.444Z,8.05
2023-03-11T16:14:13.278Z,12.25
2023-03-11T16:16:39.701Z,7.20
2023-03-11T16:19:06.164Z,6.90
2023-03-11T16:21:39.668Z,8.03
2023-03-11T16:24:06.989Z,9.63
2023-03-11T16:26:35.663Z,8.25
2023-03-11T16:29:16.660Z,7.47
2023-03-11T16:31:45.144Z,6.80
2023-03-11T16:34:11.552Z,7.53
2023-03-11T16:36:38.216Z,6.22
2023-03-11T16:39:04.690Z,7.50
2023-03-11T16:41:41.205Z,7.20
2023-03-11T16:44:10.164Z,9.63
2023-03-11T16:46:36.915Z,8.37
2023-03-11T16:49:03.990Z,8.45
2023-03-11T16:51:30.623Z,6.63
2023-03-11T16:53:57.276Z,8.82
2023-03-11T16:56:23.833Z,9.57
2023-03-11T16:58:50.369Z,8.87
2023-03-11T17:01:17.075Z,11.43
2023-03-11T17:03:43.676Z,10.13
2023-03-11T17:06:10.450Z,10.13
2023-03-11T17:08:36.991Z,12.65
2023-03-11T17:11:03.623Z,10.40
2023-03-11T17:13:30.643Z,10.48
2023-03-11T17:16:01.812Z,11.25
2023-03-11T17:18:29.081Z,9.02
2023-03-11T17:20:55.794Z,10.98
2023-03-11T17:23:22.326Z,9.83
2023-03-11T17:25:48.820Z,8.95
2023-03-11T17:28:15.262Z,10.55
2023-03-11T17:30:43.286Z,8.98
2023-03-11T17:33:09.936Z,10.13
2023-03-11T17:35:36.497Z,11.27
2023-03-11T17:38:03.123Z,9.98
2023-03-11T17:40:29.698Z,12.18
2023-03-11T17:42:56.318Z,11.70
2023-03-11T17:45:22.816Z,11.45
2023-03-11T17:47:49.377Z,11.73
2023-03-11T17:50:16.153Z,13.85
2023-03-11T17:52:42.610Z,11.65
2023-03-11T17:55:09.755Z,12.98
2023-03-11T17:57:44.956Z,14.07
2023-03-11T18:00:13.314Z,12.77
2023-03-11T18:02:39.826Z,12.27
2023-03-11T18:05:07.122Z,14.02
2023-03-11T18:07:36.119Z,16.98
2023-03-11T18:10:03.269Z,15.30
2023-03-11T18:12:29.734Z,16.27
2023-03-11T18:14:56.265Z,19.50
2023-03-11T18:17:22.716Z,18.02
2023-03-11T18:19:49.206Z,17.73
2023-03-11T18:22:15.982Z,17.30
2023-03-11T18:24:42.568Z,18.27
2023-03-11T18:27:09.147Z,18.92
2023-03-11T18:29:35.840Z,16.58
2023-03-11T18:32:06.235Z,15.95
2023-03-11T18:34:32.992Z,17.52
2023-03-11T18:36:59.505Z,14.60
2023-03-11T18:39:26.048Z,15.90
2023-03-11T18:41:52.503Z,16.00
2023-03-11T18:44:19.023Z,15.13
2023-03-11T18:46:45.597Z,20.02
2023-03-11T18:49:13.276Z,19.83
2023-03-11T18:51:40.018Z,19.52
2023-03-11T18:54:06.548Z,18.35
2023-03-11T18:56:33.822Z,18.85
2023-03-11T18:59:00.983Z,17.50
2023-03-11T19:01:27.725Z,18.23
2023-03-11T19:03:56.714Z,18.35
2023-03-11T19:06:24.496Z,20.52
2023-03-11T19:08:51.153Z,15.30
2023-03-11T19:11:20.128Z,14.95
2023-03-11T19:13:47.946Z,15.83
2023-03-11T19:16:17.347Z,16.52
2023-03-11T19:18:44.155Z,16.85
2023-03-11T19:21:12.702Z,16.13
2023-03-11T19:23:39.358Z,21.73
2023-03-11T19:26:06.289Z,19.50
2023-03-11T19:28:33.451Z,24.35
2023-03-11T19:31:00.038Z,25.15
2023-03-11T19:33:27.358Z,28.77
2023-03-11T19:35:53.906Z,27.08
2023-03-11T19:38:20.885Z,25.60
2023-03-11T19:40:54.902Z,28.05
2023-03-11T19:43:21.795Z,29.05
2023-03-11T19:45:49.191Z,25.58
2023-03-11T19:48:16.282Z,25.60
2023-03-11T19:50:43.115Z,25.30
2023-03-11T19:53:09.798Z,30.95
2023-03-11T19:55:36.316Z,27.45
2023-03-11T19:58:03.077Z,25.75
2023-03-11T20:00:29.646Z,26.42
2023-03-11T20:02:56.173Z,26.90
2023-03-11T20:05:22.782Z,29.40
2023-03-11T20:07:49.344Z,29.33
2023-03-11T20:10:17.602Z,31.17
2023-03-11T20:12:59.630Z,30.27
2023-03-11T20:15:28.506Z,25.60
2023-03-11T20:17:55.060Z,23.38
2023-03-11T20:20:21.628Z,26.38
2023-03-11T20:22:48.295Z,22.40
2023-03-11T20:25:15.185Z,24.73
2023-03-11T20:27:42.662Z,25.73
2023-03-11T20:30:09.988Z,22.17
2023-03-11T20:32:36.485Z,21.77
2023-03-11T20:35:03.349Z,23.65
2023-03-11T20:37:31.150Z,21.85
2023-03-11T20:39:57.883Z,21.20
2023-03-11T20:42:24.559Z,21.13
2023-03-11T20:44:55.528Z,19.20
2023-03-11T20:47:22.191Z,19.65
2023-03-11T20:49:48.723Z,18.83
2023-03-11T20:52:15.315Z,19.07
2023-03-11T20:54:41.884Z,19.85
2023-03-11T20:57:08.369Z,18.08
2023-03-11T20:59:35.217Z,20.58
2023-03-11T21:02:01.974Z,23.20
2023-03-11T21:04:28.623Z,19.97
2023-03-11T21:06:55.302Z,18.88
2023-03-11T21:09:21.846Z,23.02
2023-03-11T21:11:48.448Z,22.17
2023-03-11T21:14:17.158Z,23.02
2023-03-11T21:16:44.335Z,18.37
2023-03-11T21:19:12.665Z,20.30
2023-03-11T21:21:39.469Z,19.23
2023-03-11T21:24:06.492Z,25.38
2023-03-11T21:26:32.994Z,21.33
2023-03-11T21:28:59.516Z,23.37
2023-03-11T21:31:29.053Z,15.95
2023-03-11T21:33:57.892Z,25.80
2023-03-11T21:36:24.596Z,18.77
2023-03-11T21:38:51.760Z,25.05
2023-03-11T21:41:21.622Z,18.97
2023-03-11T21:43:48.355Z,16.52
2023-03-11T21:46:17.383Z,18.67
2023-03-11T21:48:44.632Z,18.25
2023-03-11T21:51:11.410Z,20.85
2023-03-11T21:53:38.821Z,18.43
2023-03-11T21:56:05.628Z,20.13
2023-03-11T21:58:33.706Z,20.45
2023-03-11T22:01:01.146Z,20.92
2023-03-11T22:03:27.918Z,19.42
2023-03-11T22:06:02.681Z,17.30
2023-03-11T22:08:29.488Z,20.98
2023-03-11T22:10:56.156Z,19.77
2023-03-11T22:13:23.578Z,20.95
2023-03-11T22:15:50.510Z,20.83
2023-03-11T22:18:17.170Z,21.47
2023-03-11T22:20:44.372Z,22.95
2023-03-11T22:23:11.028Z,19.30
2023-03-11T22:25:38.157Z,20.55
2023-03-11T22:28:05.228Z,23.75
2023-03-11T22:30:31.722Z,19.40
2023-03-11T22:32:58.294Z,20.25
2023-03-11T22:35:24.741Z,21.02
2023-03-11T22:37:51.292Z,18.42
2023-03-11T22:40:17.978Z,21.73
2023-03-11T22:42:44.500Z,22.37
2023-03-11T22:45:11.287Z,19.40
2023-03-11T22:47:37.995Z,18.58
2023-03-11T22:50:04.909Z,21.02
2023-03-11T22:52:31.439Z,19.90
2023-03-11T22:54:57.996Z,17.53
2023-03-11T22:57:24.601Z,19.45
2023-03-11T22:59:51.204Z,19.70
2023-03-11T23:02:17.770Z,19.88
2023-03-11T23:04:45.278Z,17.42
2023-03-11T23:07:12.101Z,21.80
2023-03-11T23:09:38.820Z,17.45
2023-03-11T23:12:05.751Z,24.92
2023-03-11T23:14:44.168Z,16.98
2023-03-11T23:17:11.448Z,15.45
2023-03-11T23:19:38.491Z,14.97
2023-03-11T23:22:05.134Z,18.00
2023-03-11T23:24:31.642Z,16.88
2023-03-11T23:26:58.098Z,17.00
2023-03-11T23:29:24.568Z,16.80
2023-03-11T23:31:51.080Z,16.50
2023-03-11T23:34:17.602Z,15.63
2023-03-11T23:36:44.102Z,15.27
2023-03-11T23:39:10.513Z,15.65
2023-03-11T23:41:37.003Z,13.52
2023-03-11T23:44:03.897Z,15.63
2023-03-11T23:46:30.483Z,17.92
2023-03-11T23:48:57.299Z,14.90
2023-03-11T23:51:23.760Z,13.68
2023-03-11T23:53:50.277Z,16.35
2023-03-11T23:56:18.508Z,18.57
2023-03-11T23:58:46.530Z,14.13
